Terminal Aerodrome Forecast
Issued by NWS

Home | Current Version | Previous Version | Text Only | Print | Product List | Glossary On
Versions: 1 2 3 4 5 6 7 8 9 10 11 12 13 14 15 16 17
000
FTUS45 KFGZ 302135 AAB
TAFGCN
TAF AMD
KGCN 302135Z 3022/3118 06010KT P6SM VCTS BKN060CB BKN100
      TEMPO 3022/3101 VRB10G20KT 5SM -TSRA BKN050CB
     FM310300 VRB03KT P6SM SCT070=

USA.gov is the U.S. government's official web portal to all federal, state and local government web resources and services.